Aviation Digital Data Service (ADDS)

Output produced by METARs form (1359 UTC 26 May 2018)
found at http://www.aviationweather.gov/adds/metars/
 
UGKO 261330Z 26005KT 220V300 9999 SCT026 BKN047 27/18 Q1010 NOSIG
TAF COR UGKO 261100Z 2612/2712 25006KT 9999 SCT030 BKN049 TX32/2711Z TN16/2702Z 
     TEMPO 2612/2616 TSRA BKN020CB 
     TEMPO 2622/2704 2500 BR
       
UGSB 261330Z 34005KT 9999 SCT029 BKN060 24/20 Q1013 NOSIG
TAF UGSB 261100Z 2612/2712 27007KT 9999 FEW025 TX27/2711Z TN18/2623Z 
     PROB40 
     TEMPO 2612/2618 TSRA SCT020CB 
     BECMG 2619/2621 13010KT 
     BECMG 2704/2706 30007KT
       
UGTB 261330Z 02011KT 9999 TS BKN059CB 27/11 Q1012 NOSIG
TAF COR UGTB 261100Z 2612/2712 32008KT 9999 SCT050CB TX30/2612Z TN19/2702Z 
     TEMPO 2612/2621 VRB10KT TSRA BKN045CB 
     BECMG 2622/2624 VRB02KT 
     PROB40 
     TEMPO 2706/2712 5000 SHRA BKN030CB